sensor_id;sensor_type;location;lat;lon;timestamp;temperature;humidity
14057;DHT22;7103;54.300;10.180;2024-03-25T00:00:59;7.10;99.90
14057;DHT22;7103;54.300;10.180;2024-03-25T00:03:25;6.90;99.90
14057;DHT22;7103;54.300;10.180;2024-03-25T00:05:51;7.10;99.90
14057;DHT22;7103;54.300;10.180;2024-03-25T00:08:17;7.10;99.90
14057;DHT22;7103;54.300;10.180;2024-03-25T00:10:43;7.00;99.90
14057;DHT22;7103;54.300;10.180;2024-03-25T00:13:09;6.90;99.90
14057;DHT22;7103;54.300;10.180;2024-03-25T00:15:36;7.00;99.90
14057;DHT22;7103;54.300;10.180;2024-03-25T00:18:04;7.00;99.90
14057;DHT22;7103;54.300;10.180;2024-03-25T00:20:33;7.00;99.90
14057;DHT22;7103;54.300;10.180;2024-03-25T00:22:59;7.00;99.90
14057;DHT22;7103;54.300;10.180;2024-03-25T00:25:25;7.10;99.90
14057;DHT22;7103;54.300;10.180;2024-03-25T00:27:52;7.00;99.90
14057;DHT22;7103;54.300;10.180;2024-03-25T00:30:18;6.90;99.90
14057;DHT22;7103;54.300;10.180;2024-03-25T00:32:47;6.90;99.90
14057;DHT22;7103;54.300;10.180;2024-03-25T00:35:13;7.00;99.90
14057;DHT22;7103;54.300;10.180;2024-03-25T00:37:40;7.20;99.90
14057;DHT22;7103;54.300;10.180;2024-03-25T00:40:07;7.20;99.90
14057;DHT22;7103;54.300;10.180;2024-03-25T00:42:33;7.10;99.90
14057;DHT22;7103;54.300;10.180;2024-03-25T00:44:59;7.20;99.90
14057;DHT22;7103;54.300;10.180;2024-03-25T00:47:29;7.10;99.90
14057;DHT22;7103;54.300;10.180;2024-03-25T00:49:55;6.90;99.90
14057;DHT22;7103;54.300;10.180;2024-03-25T00:52:24;6.90;99.90
14057;DHT22;7103;54.300;10.180;2024-03-25T00:54:50;6.90;99.90
14057;DHT22;7103;54.300;10.180;2024-03-25T00:57:16;7.00;99.90
14057;DHT22;7103;54.300;10.180;2024-03-25T00:59:44;6.90;99.90
14057;DHT22;7103;54.300;10.180;2024-03-25T01:02:10;7.00;99.90
14057;DHT22;7103;54.300;10.180;2024-03-25T01:04:36;6.90;99.90
14057;DHT22;7103;54.300;10.180;2024-03-25T01:07:03;7.00;99.90
14057;DHT22;7103;54.300;10.180;2024-03-25T01:09:29;6.90;99.90
14057;DHT22;7103;54.300;10.180;2024-03-25T01:11:58;7.00;99.90
14057;DHT22;7103;54.300;10.180;2024-03-25T01:14:29;6.80;99.90
14057;DHT22;7103;54.300;10.180;2024-03-25T01:16:55;6.80;99.90
14057;DHT22;7103;54.300;10.180;2024-03-25T01:19:23;6.80;99.90
14057;DHT22;7103;54.300;10.180;2024-03-25T01:21:49;6.90;99.90
14057;DHT22;7103;54.300;10.180;2024-03-25T01:24:17;6.90;99.90
14057;DHT22;7103;54.300;10.180;2024-03-25T01:26:44;6.90;99.90
14057;DHT22;7103;54.300;10.180;2024-03-25T01:29:10;6.90;99.90
14057;DHT22;7103;54.300;10.180;2024-03-25T01:31:37;6.90;99.90
14057;DHT22;7103;54.300;10.180;2024-03-25T01:34:03;6.80;99.90
14057;DHT22;7103;54.300;10.180;2024-03-25T01:36:30;6.90;99.90
14057;DHT22;7103;54.300;10.180;2024-03-25T01:38:56;6.80;99.90
14057;DHT22;7103;54.300;10.180;2024-03-25T01:41:25;6.90;99.90
14057;DHT22;7103;54.300;10.180;2024-03-25T01:43:52;6.80;99.90
14057;DHT22;7103;54.300;10.180;2024-03-25T01:46:19;6.80;99.90
14057;DHT22;7103;54.300;10.180;2024-03-25T01:48:54;6.90;99.90
14057;DHT22;7103;54.300;10.180;2024-03-25T01:51:25;6.80;99.90
14057;DHT22;7103;54.300;10.180;2024-03-25T01:53:55;6.80;99.90
14057;DHT22;7103;54.300;10.180;2024-03-25T01:56:26;6.80;99.90
14057;DHT22;7103;54.300;10.180;2024-03-25T01:58:55;6.60;99.90
14057;DHT22;7103;54.300;10.180;2024-03-25T02:01:24;6.80;99.90
14057;DHT22;7103;54.300;10.180;2024-03-25T02:03:51;6.70;99.90
14057;DHT22;7103;54.300;10.180;2024-03-25T02:06:19;6.60;99.90
14057;DHT22;7103;54.300;10.180;2024-03-25T02:08:48;6.50;99.90
14057;DHT22;7103;54.300;10.180;2024-03-25T02:11:15;6.60;99.90
14057;DHT22;7103;54.300;10.180;2024-03-25T02:13:42;6.70;99.90
14057;DHT22;7103;54.300;10.180;2024-03-25T02:16:08;6.80;99.90
14057;DHT22;7103;54.300;10.180;2024-03-25T02:18:35;6.70;99.90
14057;DHT22;7103;54.300;10.180;2024-03-25T02:21:04;6.60;99.90
14057;DHT22;7103;54.300;10.180;2024-03-25T02:23:32;6.50;99.90
14057;DHT22;7103;54.300;10.180;2024-03-25T02:26:00;6.70;99.90
14057;DHT22;7103;54.300;10.180;2024-03-25T02:28:26;6.70;99.90
14057;DHT22;7103;54.300;10.180;2024-03-25T02:30:52;6.70;99.90
14057;DHT22;7103;54.300;10.180;2024-03-25T02:33:18;6.70;99.90
14057;DHT22;7103;54.300;10.180;2024-03-25T02:35:47;6.90;99.90
14057;DHT22;7103;54.300;10.180;2024-03-25T02:38:13;6.80;99.90
14057;DHT22;7103;54.300;10.180;2024-03-25T02:40:49;6.80;99.90
14057;DHT22;7103;54.300;10.180;2024-03-25T02:43:18;6.80;99.90
14057;DHT22;7103;54.300;10.180;2024-03-25T02:45:47;6.90;99.90
14057;DHT22;7103;54.300;10.180;2024-03-25T02:48:13;6.80;99.90
14057;DHT22;7103;54.300;10.180;2024-03-25T02:50:41;6.70;99.90
14057;DHT22;7103;54.300;10.180;2024-03-25T02:53:10;6.70;99.90
14057;DHT22;7103;54.300;10.180;2024-03-25T02:55:36;6.70;99.90
14057;DHT22;7103;54.300;10.180;2024-03-25T02:58:05;6.70;99.90
14057;DHT22;7103;54.300;10.180;2024-03-25T03:00:32;6.60;99.90
14057;DHT22;7103;54.300;10.180;2024-03-25T03:02:58;6.50;99.90
14057;DHT22;7103;54.300;10.180;2024-03-25T03:05:24;6.60;99.90
14057;DHT22;7103;54.300;10.180;2024-03-25T03:07:50;6.60;99.90
14057;DHT22;7103;54.300;10.180;2024-03-25T03:10:19;6.60;99.90
14057;DHT22;7103;54.300;10.180;2024-03-25T03:12:45;6.60;99.90
14057;DHT22;7103;54.300;10.180;2024-03-25T03:15:11;6.60;99.90
14057;DHT22;7103;54.300;10.180;2024-03-25T03:17:37;6.60;99.90
14057;DHT22;7103;54.300;10.180;2024-03-25T03:20:04;6.70;99.90
14057;DHT22;7103;54.300;10.180;2024-03-25T03:22:33;6.70;99.90
14057;DHT22;7103;54.300;10.180;2024-03-25T03:24:59;6.80;99.90
14057;DHT22;7103;54.300;10.180;2024-03-25T03:27:25;6.70;99.90
14057;DHT22;7103;54.300;10.180;2024-03-25T03:29:53;6.60;99.90
14057;DHT22;7103;54.300;10.180;2024-03-25T03:32:19;6.70;99.90
14057;DHT22;7103;54.300;10.180;2024-03-25T03:34:45;6.80;99.90
14057;DHT22;7103;54.300;10.180;2024-03-25T03:37:12;6.70;99.90
14057;DHT22;7103;54.300;10.180;2024-03-25T03:39:40;6.60;99.90
14057;DHT22;7103;54.300;10.180;2024-03-25T03:42:06;6.60;99.90
14057;DHT22;7103;54.300;10.180;2024-03-25T03:44:32;6.50;99.90
14057;DHT22;7103;54.300;10.180;2024-03-25T03:47:01;6.40;99.90
14057;DHT22;7103;54.300;10.180;2024-03-25T03:49:30;6.60;99.90
14057;DHT22;7103;54.300;10.180;2024-03-25T03:51:56;6.50;99.90
14057;DHT22;7103;54.300;10.180;2024-03-25T03:54:25;6.50;99.90
14057;DHT22;7103;54.300;10.180;2024-03-25T03:56:51;6.30;99.90
14057;DHT22;7103;54.300;10.180;2024-03-25T03:59:20;6.50;99.90
14057;DHT22;7103;54.300;10.180;2024-03-25T04:01:46;6.40;99.90
14057;DHT22;7103;54.300;10.180;2024-03-25T04:04:16;6.40;99.90
14057;DHT22;7103;54.300;10.180;2024-03-25T04:06:42;6.30;99.90
14057;DHT22;7103;54.300;10.180;2024-03-25T04:09:10;6.30;99.90
14057;DHT22;7103;54.300;10.180;2024-03-25T04:11:36;6.20;99.90
14057;DHT22;7103;54.300;10.180;2024-03-25T04:14:02;6.40;99.90
14057;DHT22;7103;54.300;10.180;2024-03-25T04:16:29;6.20;99.90
14057;DHT22;7103;54.300;10.180;2024-03-25T04:18:59;6.30;99.90
14057;DHT22;7103;54.300;10.180;2024-03-25T04:21:25;6.10;99.90
14057;DHT22;7103;54.300;10.180;2024-03-25T04:23:51;6.30;99.90
14057;DHT22;7103;54.300;10.180;2024-03-25T04:26:17;6.20;99.90
14057;DHT22;7103;54.300;10.180;2024-03-25T04:28:44;6.10;99.90
14057;DHT22;7103;54.300;10.180;2024-03-25T04:31:10;6.20;99.90
14057;DHT22;7103;54.300;10.180;2024-03-25T04:33:46;6.30;99.90
14057;DHT22;7103;54.300;10.180;2024-03-25T04:36:12;6.30;99.90
14057;DHT22;7103;54.300;10.180;2024-03-25T04:38:38;6.20;99.90
14057;DHT22;7103;54.300;10.180;2024-03-25T04:41:08;6.10;99.90
14057;DHT22;7103;54.300;10.180;2024-03-25T04:43:37;6.10;99.90
14057;DHT22;7103;54.300;10.180;2024-03-25T04:46:03;6.10;99.90
14057;DHT22;7103;54.300;10.180;2024-03-25T04:48:29;6.10;99.90
14057;DHT22;7103;54.300;10.180;2024-03-25T04:50:55;6.00;99.90
14057;DHT22;7103;54.300;10.180;2024-03-25T04:53:21;6.10;99.90
14057;DHT22;7103;54.300;10.180;2024-03-25T04:55:47;6.00;99.90
14057;DHT22;7103;54.300;10.180;2024-03-25T04:58:13;6.00;99.90
14057;DHT22;7103;54.300;10.180;2024-03-25T05:00:40;5.90;99.90
14057;DHT22;7103;54.300;10.180;2024-03-25T05:03:06;6.00;99.90
14057;DHT22;7103;54.300;10.180;2024-03-25T05:05:32;6.00;99.90
14057;DHT22;7103;54.300;10.180;2024-03-25T05:07:58;6.00;99.90
14057;DHT22;7103;54.300;10.180;2024-03-25T05:10:24;6.00;96.60
14057;DHT22;7103;54.300;10.180;2024-03-25T05:12:50;5.80;93.30
14057;DHT22;7103;54.300;10.180;2024-03-25T05:15:16;5.80;78.50
14057;DHT22;7103;54.300;10.180;2024-03-25T05:17:42;5.50;90.30
14057;DHT22;7103;54.300;10.180;2024-03-25T05:20:09;5.40;92.40
14057;DHT22;7103;54.300;10.180;2024-03-25T05:22:35;5.30;92.50
14057;DHT22;7103;54.300;10.180;2024-03-25T05:25:01;5.20;96.60
14057;DHT22;7103;54.300;10.180;2024-03-25T05:27:29;5.20;99.90
14057;DHT22;7103;54.300;10.180;2024-03-25T05:29:55;5.20;98.70
14057;DHT22;7103;54.300;10.180;2024-03-25T05:32:21;5.10;99.80
14057;DHT22;7103;54.300;10.180;2024-03-25T05:34:47;5.00;99.90
14057;DHT22;7103;54.300;10.180;2024-03-25T05:37:16;5.20;99.90
14057;DHT22;7103;54.300;10.180;2024-03-25T05:39:42;5.20;99.90
14057;DHT22;7103;54.300;10.180;2024-03-25T05:42:08;5.10;99.90
14057;DHT22;7103;54.300;10.180;2024-03-25T05:44:34;5.00;99.90
14057;DHT22;7103;54.300;10.180;2024-03-25T05:47:00;5.10;99.90
14057;DHT22;7103;54.300;10.180;2024-03-25T05:49:27;5.20;99.90
14057;DHT22;7103;54.300;10.180;2024-03-25T05:51:53;5.30;99.90
14057;DHT22;7103;54.300;10.180;2024-03-25T05:54:19;5.50;99.90
14057;DHT22;7103;54.300;10.180;2024-03-25T05:56:45;5.50;99.90
14057;DHT22;7103;54.300;10.180;2024-03-25T05:59:11;5.60;99.90
14057;DHT22;7103;54.300;10.180;2024-03-25T06:01:37;5.60;99.90
14057;DHT22;7103;54.300;10.180;2024-03-25T06:04:05;5.50;99.90
14057;DHT22;7103;54.300;10.180;2024-03-25T06:06:31;5.60;99.90
14057;DHT22;7103;54.300;10.180;2024-03-25T06:08:58;5.60;99.90
14057;DHT22;7103;54.300;10.180;2024-03-25T06:11:24;5.50;99.90
14057;DHT22;7103;54.300;10.180;2024-03-25T06:13:50;5.70;99.90
14057;DHT22;7103;54.300;10.180;2024-03-25T06:16:16;5.70;99.90
14057;DHT22;7103;54.300;10.180;2024-03-25T06:18:42;5.70;99.90
14057;DHT22;7103;54.300;10.180;2024-03-25T06:21:08;5.70;99.90
14057;DHT22;7103;54.300;10.180;2024-03-25T06:23:34;5.90;99.90
14057;DHT22;7103;54.300;10.180;2024-03-25T06:26:00;6.00;99.90
14057;DHT22;7103;54.300;10.180;2024-03-25T06:28:26;6.00;99.90
14057;DHT22;7103;54.300;10.180;2024-03-25T06:30:52;6.30;99.90
14057;DHT22;7103;54.300;10.180;2024-03-25T06:33:37;6.30;99.90
14057;DHT22;7103;54.300;10.180;2024-03-25T06:36:22;6.40;99.90
14057;DHT22;7103;54.300;10.180;2024-03-25T06:38:48;6.50;99.90
14057;DHT22;7103;54.300;10.180;2024-03-25T06:41:14;6.70;99.90
14057;DHT22;7103;54.300;10.180;2024-03-25T06:43:41;6.80;99.90
14057;DHT22;7103;54.300;10.180;2024-03-25T06:46:07;6.90;99.90
14057;DHT22;7103;54.300;10.180;2024-03-25T06:48:33;7.10;99.90
14057;DHT22;7103;54.300;10.180;2024-03-25T06:51:02;7.10;99.90
14057;DHT22;7103;54.300;10.180;2024-03-25T06:53:29;7.20;99.90
14057;DHT22;7103;54.300;10.180;2024-03-25T06:55:57;7.20;97.40
14057;DHT22;7103;54.300;10.180;2024-03-25T06:58:25;7.30;95.30
14057;DHT22;7103;54.300;10.180;2024-03-25T07:00:51;7.30;77.00
14057;DHT22;7103;54.300;10.180;2024-03-25T07:03:19;7.30;59.90
14057;DHT22;7103;54.300;10.180;2024-03-25T07:05:46;7.30;52.80
14057;DHT22;7103;54.300;10.180;2024-03-25T07:08:12;7.30;44.90
14057;DHT22;7103;54.300;10.180;2024-03-25T07:10:38;7.50;39.00
14057;DHT22;7103;54.300;10.180;2024-03-25T07:13:07;7.40;20.20
14057;DHT22;7103;54.300;10.180;2024-03-25T07:15:33;7.50;22.10
14057;DHT22;7103;54.300;10.180;2024-03-25T07:17:59;7.50;20.30
14057;DHT22;7103;54.300;10.180;2024-03-25T07:20:26;7.80;20.40
14057;DHT22;7103;54.300;10.180;2024-03-25T07:22:56;7.80;1.00
14057;DHT22;7103;54.300;10.180;2024-03-25T07:25:23;7.70;1.00
14057;DHT22;7103;54.300;10.180;2024-03-25T07:27:49;7.60;1.00
14057;DHT22;7103;54.300;10.180;2024-03-25T07:30:15;7.60;1.00
14057;DHT22;7103;54.300;10.180;2024-03-25T07:32:41;7.50;1.00
14057;DHT22;7103;54.300;10.180;2024-03-25T07:35:08;7.60;1.00
14057;DHT22;7103;54.300;10.180;2024-03-25T07:37:35;7.70;1.00
14057;DHT22;7103;54.300;10.180;2024-03-25T07:40:03;7.60;1.00
14057;DHT22;7103;54.300;10.180;2024-03-25T07:42:30;7.70;1.00
14057;DHT22;7103;54.300;10.180;2024-03-25T07:44:56;7.80;1.00
14057;DHT22;7103;54.300;10.180;2024-03-25T07:47:23;8.00;1.00
14057;DHT22;7103;54.300;10.180;2024-03-25T07:49:49;8.30;1.00
14057;DHT22;7103;54.300;10.180;2024-03-25T07:52:15;8.60;1.00
14057;DHT22;7103;54.300;10.180;2024-03-25T07:54:41;9.00;1.00
14057;DHT22;7103;54.300;10.180;2024-03-25T07:57:08;9.40;1.00
14057;DHT22;7103;54.300;10.180;2024-03-25T07:59:35;9.20;1.00
14057;DHT22;7103;54.300;10.180;2024-03-25T08:02:01;9.50;1.00
14057;DHT22;7103;54.300;10.180;2024-03-25T08:04:27;9.90;1.00
14057;DHT22;7103;54.300;10.180;2024-03-25T08:06:55;10.80;1.00
14057;DHT22;7103;54.300;10.180;2024-03-25T08:09:21;12.00;1.00
14057;DHT22;7103;54.300;10.180;2024-03-25T08:11:47;12.70;1.00
14057;DHT22;7103;54.300;10.180;2024-03-25T08:14:13;12.60;1.00
14057;DHT22;7103;54.300;10.180;2024-03-25T08:16:39;12.30;1.00
14057;DHT22;7103;54.300;10.180;2024-03-25T08:19:05;12.10;1.00
14057;DHT22;7103;54.300;10.180;2024-03-25T08:21:32;11.80;1.00
14057;DHT22;7103;54.300;10.180;2024-03-25T08:23:59;12.20;1.00
14057;DHT22;7103;54.300;10.180;2024-03-25T08:26:25;12.40;1.00
14057;DHT22;7103;54.300;10.180;2024-03-25T08:28:51;12.30;1.00
14057;DHT22;7103;54.300;10.180;2024-03-25T08:31:17;12.10;1.00
14057;DHT22;7103;54.300;10.180;2024-03-25T08:33:43;12.00;1.00
14057;DHT22;7103;54.300;10.180;2024-03-25T08:36:10;11.50;1.00
14057;DHT22;7103;54.300;10.180;2024-03-25T08:38:36;10.90;1.00
14057;DHT22;7103;54.300;10.180;2024-03-25T08:41:02;10.50;1.00
14057;DHT22;7103;54.300;10.180;2024-03-25T08:43:28;10.40;1.00
14057;DHT22;7103;54.300;10.180;2024-03-25T08:45:54;10.20;1.00
14057;DHT22;7103;54.300;10.180;2024-03-25T08:48:21;10.10;1.00
14057;DHT22;7103;54.300;10.180;2024-03-25T08:50:47;10.10;1.00
14057;DHT22;7103;54.300;10.180;2024-03-25T08:53:13;10.30;1.00
14057;DHT22;7103;54.300;10.180;2024-03-25T08:55:46;10.50;1.00
14057;DHT22;7103;54.300;10.180;2024-03-25T08:58:15;10.40;1.00
14057;DHT22;7103;54.300;10.180;2024-03-25T09:00:44;10.00;1.00
14057;DHT22;7103;54.300;10.180;2024-03-25T09:03:10;9.80;1.00
14057;DHT22;7103;54.300;10.180;2024-03-25T09:05:37;9.80;1.00
14057;DHT22;7103;54.300;10.180;2024-03-25T09:08:06;9.60;1.00
14057;DHT22;7103;54.300;10.180;2024-03-25T09:10:32;9.80;1.00
14057;DHT22;7103;54.300;10.180;2024-03-25T09:13:17;10.00;1.00
14057;DHT22;7103;54.300;10.180;2024-03-25T09:15:43;10.00;1.00
14057;DHT22;7103;54.300;10.180;2024-03-25T09:18:09;10.00;1.00
14057;DHT22;7103;54.300;10.180;2024-03-25T09:20:35;9.70;1.00
14057;DHT22;7103;54.300;10.180;2024-03-25T09:23:01;9.70;1.00
14057;DHT22;7103;54.300;10.180;2024-03-25T09:25:28;9.60;1.00
14057;DHT22;7103;54.300;10.180;2024-03-25T09:27:54;9.60;1.00
14057;DHT22;7103;54.300;10.180;2024-03-25T09:30:20;9.60;1.00
14057;DHT22;7103;54.300;10.180;2024-03-25T09:32:46;9.60;1.00
14057;DHT22;7103;54.300;10.180;2024-03-25T09:35:12;9.90;1.00
14057;DHT22;7103;54.300;10.180;2024-03-25T09:37:38;10.30;1.00
14057;DHT22;7103;54.300;10.180;2024-03-25T09:40:05;10.60;1.00
14057;DHT22;7103;54.300;10.180;2024-03-25T09:42:56;10.60;1.00
14057;DHT22;7103;54.300;10.180;2024-03-25T09:45:24;10.60;1.00
14057;DHT22;7103;54.300;10.180;2024-03-25T09:47:55;10.30;1.00
14057;DHT22;7103;54.300;10.180;2024-03-25T09:50:22;10.10;1.00
14057;DHT22;7103;54.300;10.180;2024-03-25T09:52:51;9.80;1.00
14057;DHT22;7103;54.300;10.180;2024-03-25T09:55:18;9.80;1.00
14057;DHT22;7103;54.300;10.180;2024-03-25T09:57:44;9.90;1.00
14057;DHT22;7103;54.300;10.180;2024-03-25T10:00:11;10.00;1.00
14057;DHT22;7103;54.300;10.180;2024-03-25T10:02:39;10.10;1.00
14057;DHT22;7103;54.300;10.180;2024-03-25T10:05:06;10.30;1.00
14057;DHT22;7103;54.300;10.180;2024-03-25T10:07:33;10.30;1.00
14057;DHT22;7103;54.300;10.180;2024-03-25T10:09:59;10.10;1.00
14057;DHT22;7103;54.300;10.180;2024-03-25T10:12:25;10.10;1.00
14057;DHT22;7103;54.300;10.180;2024-03-25T10:14:51;10.10;1.00
14057;DHT22;7103;54.300;10.180;2024-03-25T10:17:17;10.80;1.00
14057;DHT22;7103;54.300;10.180;2024-03-25T10:19:43;11.00;1.00
14057;DHT22;7103;54.300;10.180;2024-03-25T10:22:09;10.90;1.00
14057;DHT22;7103;54.300;10.180;2024-03-25T10:24:39;10.40;1.00
14057;DHT22;7103;54.300;10.180;2024-03-25T10:27:09;10.30;1.00
14057;DHT22;7103;54.300;10.180;2024-03-25T10:29:35;10.00;1.00
14057;DHT22;7103;54.300;10.180;2024-03-25T10:32:01;10.20;1.00
14057;DHT22;7103;54.300;10.180;2024-03-25T10:34:30;10.20;1.00
14057;DHT22;7103;54.300;10.180;2024-03-25T10:36:57;10.50;1.00
14057;DHT22;7103;54.300;10.180;2024-03-25T10:39:26;10.80;1.00
14057;DHT22;7103;54.300;10.180;2024-03-25T10:41:57;11.40;1.00
14057;DHT22;7103;54.300;10.180;2024-03-25T10:44:30;11.30;1.00
14057;DHT22;7103;54.300;10.180;2024-03-25T10:47:02;11.10;1.00
14057;DHT22;7103;54.300;10.180;2024-03-25T10:49:49;11.10;1.00
14057;DHT22;7103;54.300;10.180;2024-03-25T10:52:16;10.80;1.00
14057;DHT22;7103;54.300;10.180;2024-03-25T10:54:47;11.00;1.00
14057;DHT22;7103;54.300;10.180;2024-03-25T10:57:13;11.10;1.00
14057;DHT22;7103;54.300;10.180;2024-03-25T10:59:43;11.30;1.00
14057;DHT22;7103;54.300;10.180;2024-03-25T11:02:09;11.50;1.00
14057;DHT22;7103;54.300;10.180;2024-03-25T11:04:36;11.70;1.00
14057;DHT22;7103;54.300;10.180;2024-03-25T11:07:09;11.70;1.00
14057;DHT22;7103;54.300;10.180;2024-03-25T11:09:36;11.60;1.00
14057;DHT22;7103;54.300;10.180;2024-03-25T11:12:03;11.40;1.00
14057;DHT22;7103;54.300;10.180;2024-03-25T11:14:30;11.60;1.00
14057;DHT22;7103;54.300;10.180;2024-03-25T11:16:58;11.60;1.00
14057;DHT22;7103;54.300;10.180;2024-03-25T11:19:28;11.80;1.00
14057;DHT22;7103;54.300;10.180;2024-03-25T11:22:06;11.70;1.00
14057;DHT22;7103;54.300;10.180;2024-03-25T11:24:32;11.70;1.00
14057;DHT22;7103;54.300;10.180;2024-03-25T11:27:01;11.60;1.00
14057;DHT22;7103;54.300;10.180;2024-03-25T11:29:27;11.60;1.00
14057;DHT22;7103;54.300;10.180;2024-03-25T11:31:53;11.50;1.00
14057;DHT22;7103;54.300;10.180;2024-03-25T11:34:19;11.50;1.00
14057;DHT22;7103;54.300;10.180;2024-03-25T11:36:46;11.60;1.00
14057;DHT22;7103;54.300;10.180;2024-03-25T11:39:14;11.40;1.00
14057;DHT22;7103;54.300;10.180;2024-03-25T11:41:41;11.20;1.00
14057;DHT22;7103;54.300;10.180;2024-03-25T11:44:08;10.80;99.90
14057;DHT22;7103;54.300;10.180;2024-03-25T11:46:39;10.70;1.00
14057;DHT22;7103;54.300;10.180;2024-03-25T11:49:14;10.60;99.90
14057;DHT22;7103;54.300;10.180;2024-03-25T11:51:43;10.70;1.00
14057;DHT22;7103;54.300;10.180;2024-03-25T11:54:11;10.80;99.90
14057;DHT22;7103;54.300;10.180;2024-03-25T11:56:37;10.70;99.90
14057;DHT22;7103;54.300;10.180;2024-03-25T11:59:04;10.70;99.90
14057;DHT22;7103;54.300;10.180;2024-03-25T12:01:30;10.70;99.90
14057;DHT22;7103;54.300;10.180;2024-03-25T12:03:57;10.50;99.90
14057;DHT22;7103;54.300;10.180;2024-03-25T12:06:23;10.60;99.90
14057;DHT22;7103;54.300;10.180;2024-03-25T12:08:49;10.80;99.90
14057;DHT22;7103;54.300;10.180;2024-03-25T12:11:33;11.20;99.90
14057;DHT22;7103;54.300;10.180;2024-03-25T12:14:01;11.90;99.90
14057;DHT22;7103;54.300;10.180;2024-03-25T12:16:27;12.30;99.90
14057;DHT22;7103;54.300;10.180;2024-03-25T12:18:53;12.20;99.90
14057;DHT22;7103;54.300;10.180;2024-03-25T12:21:20;11.90;99.90
14057;DHT22;7103;54.300;10.180;2024-03-25T12:23:47;11.60;99.90
14057;DHT22;7103;54.300;10.180;2024-03-25T12:26:13;11.50;99.90
14057;DHT22;7103;54.300;10.180;2024-03-25T12:28:40;11.50;99.90
14057;DHT22;7103;54.300;10.180;2024-03-25T12:31:09;11.50;99.90
14057;DHT22;7103;54.300;10.180;2024-03-25T12:33:41;11.70;99.90
14057;DHT22;7103;54.300;10.180;2024-03-25T12:36:07;11.80;99.90
14057;DHT22;7103;54.300;10.180;2024-03-25T12:38:37;12.00;99.90
14057;DHT22;7103;54.300;10.180;2024-03-25T12:41:07;12.50;99.90
14057;DHT22;7103;54.300;10.180;2024-03-25T12:43:35;12.60;99.90
14057;DHT22;7103;54.300;10.180;2024-03-25T12:46:02;13.00;99.90
14057;DHT22;7103;54.300;10.180;2024-03-25T12:48:31;13.10;99.90
14057;DHT22;7103;54.300;10.180;2024-03-25T12:50:57;13.20;99.90
14057;DHT22;7103;54.300;10.180;2024-03-25T12:53:23;13.40;99.90
14057;DHT22;7103;54.300;10.180;2024-03-25T12:55:50;13.80;99.90
14057;DHT22;7103;54.300;10.180;2024-03-25T12:58:16;13.70;99.90
14057;DHT22;7103;54.300;10.180;2024-03-25T13:00:42;13.50;99.90
14057;DHT22;7103;54.300;10.180;2024-03-25T13:03:09;13.30;99.90
14057;DHT22;7103;54.300;10.180;2024-03-25T13:05:35;12.90;99.90
14057;DHT22;7103;54.300;10.180;2024-03-25T13:08:02;12.60;99.90
14057;DHT22;7103;54.300;10.180;2024-03-25T13:10:31;12.40;99.90
14057;DHT22;7103;54.300;10.180;2024-03-25T13:12:59;12.00;99.90
14057;DHT22;7103;54.300;10.180;2024-03-25T13:15:26;11.70;99.90
14057;DHT22;7103;54.300;10.180;2024-03-25T13:17:54;11.50;99.90
14057;DHT22;7103;54.300;10.180;2024-03-25T13:20:20;11.60;99.90
14057;DHT22;7103;54.300;10.180;2024-03-25T13:22:48;11.90;99.90
14057;DHT22;7103;54.300;10.180;2024-03-25T13:25:14;12.00;99.90
14057;DHT22;7103;54.300;10.180;2024-03-25T13:27:40;12.00;99.90
14057;DHT22;7103;54.300;10.180;2024-03-25T13:30:06;11.90;99.90
14057;DHT22;7103;54.300;10.180;2024-03-25T13:32:33;11.70;99.90
14057;DHT22;7103;54.300;10.180;2024-03-25T13:34:59;11.40;99.90
14057;DHT22;7103;54.300;10.180;2024-03-25T13:37:30;11.30;99.90
14057;DHT22;7103;54.300;10.180;2024-03-25T13:39:56;11.30;99.90
14057;DHT22;7103;54.300;10.180;2024-03-25T13:42:22;11.40;99.90
14057;DHT22;7103;54.300;10.180;2024-03-25T13:44:48;11.40;99.90
14057;DHT22;7103;54.300;10.180;2024-03-25T13:47:14;11.00;99.90
14057;DHT22;7103;54.300;10.180;2024-03-25T13:49:40;10.80;99.90
14057;DHT22;7103;54.300;10.180;2024-03-25T13:52:06;10.70;99.90
14057;DHT22;7103;54.300;10.180;2024-03-25T13:54:32;10.70;99.90
14057;DHT22;7103;54.300;10.180;2024-03-25T13:56:59;10.70;99.90
14057;DHT22;7103;54.300;10.180;2024-03-25T13:59:25;10.50;99.90
14057;DHT22;7103;54.300;10.180;2024-03-25T14:01:51;10.40;99.90
14057;DHT22;7103;54.300;10.180;2024-03-25T14:04:19;10.30;99.90
14057;DHT22;7103;54.300;10.180;2024-03-25T14:06:45;10.30;99.90
14057;DHT22;7103;54.300;10.180;2024-03-25T14:09:38;10.50;99.90
14057;DHT22;7103;54.300;10.180;2024-03-25T14:12:04;10.80;99.90
14057;DHT22;7103;54.300;10.180;2024-03-25T14:14:31;11.10;99.90
14057;DHT22;7103;54.300;10.180;2024-03-25T14:16:58;11.30;99.90
14057;DHT22;7103;54.300;10.180;2024-03-25T14:19:24;11.40;99.90
14057;DHT22;7103;54.300;10.180;2024-03-25T14:21:50;11.50;99.90
14057;DHT22;7103;54.300;10.180;2024-03-25T14:24:18;11.40;99.90
14057;DHT22;7103;54.300;10.180;2024-03-25T14:26:44;11.20;99.90
14057;DHT22;7103;54.300;10.180;2024-03-25T14:29:10;11.00;99.90
14057;DHT22;7103;54.300;10.180;2024-03-25T14:31:36;10.90;99.90
14057;DHT22;7103;54.300;10.180;2024-03-25T14:34:02;10.80;99.90
14057;DHT22;7103;54.300;10.180;2024-03-25T14:36:28;11.00;99.90
14057;DHT22;7103;54.300;10.180;2024-03-25T14:38:54;11.00;99.90
14057;DHT22;7103;54.300;10.180;2024-03-25T14:41:21;10.60;99.90
14057;DHT22;7103;54.300;10.180;2024-03-25T14:43:47;10.60;99.90
14057;DHT22;7103;54.300;10.180;2024-03-25T14:46:16;10.60;99.90
14057;DHT22;7103;54.300;10.180;2024-03-25T14:48:43;10.60;99.90
14057;DHT22;7103;54.300;10.180;2024-03-25T14:51:09;10.40;99.90
14057;DHT22;7103;54.300;10.180;2024-03-25T14:53:35;10.40;99.90
14057;DHT22;7103;54.300;10.180;2024-03-25T14:56:01;10.40;99.90
14057;DHT22;7103;54.300;10.180;2024-03-25T14:58:29;10.50;99.90
14057;DHT22;7103;54.300;10.180;2024-03-25T15:00:57;10.50;99.90
14057;DHT22;7103;54.300;10.180;2024-03-25T15:03:23;10.50;99.90
14057;DHT22;7103;54.300;10.180;2024-03-25T15:05:49;10.50;99.90
14057;DHT22;7103;54.300;10.180;2024-03-25T15:08:15;10.70;99.90
14057;DHT22;7103;54.300;10.180;2024-03-25T15:10:41;10.70;99.90
14057;DHT22;7103;54.300;10.180;2024-03-25T15:13:07;10.70;99.90
14057;DHT22;7103;54.300;10.180;2024-03-25T15:15:39;10.80;99.90
14057;DHT22;7103;54.300;10.180;2024-03-25T15:18:05;10.70;99.90
14057;DHT22;7103;54.300;10.180;2024-03-25T15:20:34;10.60;99.90
14057;DHT22;7103;54.300;10.180;2024-03-25T15:23:00;10.50;99.90
14057;DHT22;7103;54.300;10.180;2024-03-25T15:25:26;10.30;99.90
14057;DHT22;7103;54.300;10.180;2024-03-25T15:27:53;10.30;99.90
14057;DHT22;7103;54.300;10.180;2024-03-25T15:30:19;10.40;99.90
14057;DHT22;7103;54.300;10.180;2024-03-25T15:32:46;10.30;99.90
14057;DHT22;7103;54.300;10.180;2024-03-25T15:35:13;10.30;99.90
14057;DHT22;7103;54.300;10.180;2024-03-25T15:37:40;10.40;99.90
14057;DHT22;7103;54.300;10.180;2024-03-25T15:40:07;10.60;99.90
14057;DHT22;7103;54.300;10.180;2024-03-25T15:42:35;10.60;99.90